sensor_id;sensor_type;location;lat;lon;timestamp;temperature;humidity
26081;DHT22;13991;51.174;4.438;2024-01-15T00:02:05;5.00;99.90
26081;DHT22;13991;51.174;4.438;2024-01-15T00:04:36;4.90;99.90
26081;DHT22;13991;51.174;4.438;2024-01-15T00:07:01;4.90;99.90
26081;DHT22;13991;51.174;4.438;2024-01-15T00:09:27;4.90;99.90
26081;DHT22;13991;51.174;4.438;2024-01-15T00:11:53;4.90;99.90
26081;DHT22;13991;51.174;4.438;2024-01-15T00:14:18;4.90;99.90
26081;DHT22;13991;51.174;4.438;2024-01-15T00:16:45;4.90;99.90
26081;DHT22;13991;51.174;4.438;2024-01-15T00:19:11;4.90;99.90
26081;DHT22;13991;51.174;4.438;2024-01-15T00:21:37;5.00;99.90
26081;DHT22;13991;51.174;4.438;2024-01-15T00:24:02;5.00;99.90
26081;DHT22;13991;51.174;4.438;2024-01-15T00:26:28;5.00;99.90
26081;DHT22;13991;51.174;4.438;2024-01-15T00:28:54;5.00;99.90
26081;DHT22;13991;51.174;4.438;2024-01-15T00:31:19;4.90;99.90
26081;DHT22;13991;51.174;4.438;2024-01-15T00:33:46;4.90;99.90
26081;DHT22;13991;51.174;4.438;2024-01-15T00:36:12;4.70;99.90
26081;DHT22;13991;51.174;4.438;2024-01-15T00:38:37;4.60;99.90
26081;DHT22;13991;51.174;4.438;2024-01-15T00:41:03;4.60;99.90
26081;DHT22;13991;51.174;4.438;2024-01-15T00:43:29;4.70;99.90
26081;DHT22;13991;51.174;4.438;2024-01-15T00:45:55;4.70;99.90
26081;DHT22;13991;51.174;4.438;2024-01-15T00:48:21;4.70;99.90
26081;DHT22;13991;51.174;4.438;2024-01-15T00:50:46;4.70;99.90
26081;DHT22;13991;51.174;4.438;2024-01-15T00:53:12;4.80;99.90
26081;DHT22;13991;51.174;4.438;2024-01-15T00:55:38;4.80;99.90
26081;DHT22;13991;51.174;4.438;2024-01-15T00:58:04;4.70;99.90
26081;DHT22;13991;51.174;4.438;2024-01-15T01:00:29;4.80;99.90
26081;DHT22;13991;51.174;4.438;2024-01-15T01:02:55;4.90;99.90
26081;DHT22;13991;51.174;4.438;2024-01-15T01:05:20;4.90;99.90
26081;DHT22;13991;51.174;4.438;2024-01-15T01:07:46;5.10;99.90
26081;DHT22;13991;51.174;4.438;2024-01-15T01:10:12;5.00;99.90
26081;DHT22;13991;51.174;4.438;2024-01-15T01:12:37;4.90;99.90
26081;DHT22;13991;51.174;4.438;2024-01-15T01:15:03;5.00;99.90
26081;DHT22;13991;51.174;4.438;2024-01-15T01:17:29;5.00;99.90
26081;DHT22;13991;51.174;4.438;2024-01-15T01:19:56;4.90;99.90
26081;DHT22;13991;51.174;4.438;2024-01-15T01:22:21;4.90;99.90
26081;DHT22;13991;51.174;4.438;2024-01-15T01:24:47;5.00;99.90
26081;DHT22;13991;51.174;4.438;2024-01-15T01:27:13;5.00;99.90
26081;DHT22;13991;51.174;4.438;2024-01-15T01:29:38;5.00;99.90
26081;DHT22;13991;51.174;4.438;2024-01-15T01:32:04;4.90;99.90
26081;DHT22;13991;51.174;4.438;2024-01-15T01:34:32;5.00;99.90
26081;DHT22;13991;51.174;4.438;2024-01-15T01:36:58;5.20;99.90
26081;DHT22;13991;51.174;4.438;2024-01-15T01:39:24;5.10;99.90
26081;DHT22;13991;51.174;4.438;2024-01-15T01:41:49;5.00;99.90
26081;DHT22;13991;51.174;4.438;2024-01-15T01:44:15;5.00;99.90
26081;DHT22;13991;51.174;4.438;2024-01-15T01:46:41;5.00;99.90
26081;DHT22;13991;51.174;4.438;2024-01-15T01:49:08;5.00;99.90
26081;DHT22;13991;51.174;4.438;2024-01-15T01:51:35;5.00;99.90
26081;DHT22;13991;51.174;4.438;2024-01-15T01:54:01;5.00;99.90
26081;DHT22;13991;51.174;4.438;2024-01-15T01:56:27;5.00;99.90
26081;DHT22;13991;51.174;4.438;2024-01-15T01:58:53;5.00;99.90
26081;DHT22;13991;51.174;4.438;2024-01-15T02:01:19;5.00;99.90
26081;DHT22;13991;51.174;4.438;2024-01-15T02:03:45;5.00;99.90
26081;DHT22;13991;51.174;4.438;2024-01-15T02:06:11;5.00;99.90
26081;DHT22;13991;51.174;4.438;2024-01-15T02:08:37;5.00;99.90
26081;DHT22;13991;51.174;4.438;2024-01-15T02:11:02;5.00;99.90
26081;DHT22;13991;51.174;4.438;2024-01-15T02:13:28;5.00;99.90
26081;DHT22;13991;51.174;4.438;2024-01-15T02:15:54;5.00;99.90
26081;DHT22;13991;51.174;4.438;2024-01-15T02:18:20;5.10;99.90
26081;DHT22;13991;51.174;4.438;2024-01-15T02:20:46;5.10;99.90
26081;DHT22;13991;51.174;4.438;2024-01-15T02:23:13;5.00;99.90
26081;DHT22;13991;51.174;4.438;2024-01-15T02:25:46;5.10;99.90
26081;DHT22;13991;51.174;4.438;2024-01-15T02:28:16;5.00;99.90
26081;DHT22;13991;51.174;4.438;2024-01-15T02:30:43;4.90;99.90
26081;DHT22;13991;51.174;4.438;2024-01-15T02:33:10;4.90;99.90
26081;DHT22;13991;51.174;4.438;2024-01-15T02:35:36;5.00;99.90
26081;DHT22;13991;51.174;4.438;2024-01-15T02:38:03;5.00;99.90
26081;DHT22;13991;51.174;4.438;2024-01-15T02:40:29;4.90;99.90
26081;DHT22;13991;51.174;4.438;2024-01-15T02:42:54;4.90;99.90
26081;DHT22;13991;51.174;4.438;2024-01-15T02:45:20;4.90;99.90
26081;DHT22;13991;51.174;4.438;2024-01-15T02:47:46;4.90;99.90
26081;DHT22;13991;51.174;4.438;2024-01-15T02:50:12;5.00;99.90
26081;DHT22;13991;51.174;4.438;2024-01-15T02:52:37;4.90;99.90
26081;DHT22;13991;51.174;4.438;2024-01-15T02:55:03;5.00;99.90
26081;DHT22;13991;51.174;4.438;2024-01-15T02:57:29;5.00;99.90
26081;DHT22;13991;51.174;4.438;2024-01-15T02:59:55;5.00;99.90
26081;DHT22;13991;51.174;4.438;2024-01-15T03:02:20;5.00;99.90
26081;DHT22;13991;51.174;4.438;2024-01-15T03:04:46;5.10;99.90
26081;DHT22;13991;51.174;4.438;2024-01-15T03:07:12;5.00;99.90
26081;DHT22;13991;51.174;4.438;2024-01-15T03:09:38;5.00;99.90
26081;DHT22;13991;51.174;4.438;2024-01-15T03:12:04;5.00;99.90
26081;DHT22;13991;51.174;4.438;2024-01-15T03:14:30;5.00;99.90
26081;DHT22;13991;51.174;4.438;2024-01-15T03:16:55;4.90;99.90
26081;DHT22;13991;51.174;4.438;2024-01-15T03:19:21;4.90;99.90
26081;DHT22;13991;51.174;4.438;2024-01-15T03:21:47;5.00;99.90
26081;DHT22;13991;51.174;4.438;2024-01-15T03:24:12;5.10;99.90
26081;DHT22;13991;51.174;4.438;2024-01-15T03:26:38;5.00;99.90
26081;DHT22;13991;51.174;4.438;2024-01-15T03:29:04;5.10;99.90
26081;DHT22;13991;51.174;4.438;2024-01-15T03:31:30;5.00;99.90
26081;DHT22;13991;51.174;4.438;2024-01-15T03:33:56;5.10;99.90
26081;DHT22;13991;51.174;4.438;2024-01-15T03:36:22;5.10;99.90
26081;DHT22;13991;51.174;4.438;2024-01-15T03:38:48;5.10;99.90
26081;DHT22;13991;51.174;4.438;2024-01-15T03:41:14;5.10;99.90
26081;DHT22;13991;51.174;4.438;2024-01-15T03:43:39;5.10;99.90
26081;DHT22;13991;51.174;4.438;2024-01-15T03:46:05;5.20;99.90
26081;DHT22;13991;51.174;4.438;2024-01-15T03:48:31;5.00;99.90
26081;DHT22;13991;51.174;4.438;2024-01-15T03:50:57;5.10;99.90
26081;DHT22;13991;51.174;4.438;2024-01-15T03:53:22;5.00;99.90
26081;DHT22;13991;51.174;4.438;2024-01-15T03:55:49;5.10;99.90
26081;DHT22;13991;51.174;4.438;2024-01-15T03:58:15;5.00;99.90
26081;DHT22;13991;51.174;4.438;2024-01-15T04:00:41;5.00;99.90
26081;DHT22;13991;51.174;4.438;2024-01-15T04:03:07;5.00;99.90
26081;DHT22;13991;51.174;4.438;2024-01-15T04:05:32;5.00;99.90
26081;DHT22;13991;51.174;4.438;2024-01-15T04:07:58;4.90;99.90
26081;DHT22;13991;51.174;4.438;2024-01-15T04:10:24;5.00;99.90
26081;DHT22;13991;51.174;4.438;2024-01-15T04:12:49;4.90;99.90
26081;DHT22;13991;51.174;4.438;2024-01-15T04:15:15;5.10;99.90
26081;DHT22;13991;51.174;4.438;2024-01-15T04:17:41;4.90;99.90
26081;DHT22;13991;51.174;4.438;2024-01-15T04:20:07;4.90;99.90
26081;DHT22;13991;51.174;4.438;2024-01-15T04:22:34;4.90;99.90
26081;DHT22;13991;51.174;4.438;2024-01-15T04:25:00;4.90;99.90
26081;DHT22;13991;51.174;4.438;2024-01-15T04:27:26;4.90;99.90
26081;DHT22;13991;51.174;4.438;2024-01-15T04:29:52;4.90;99.90
26081;DHT22;13991;51.174;4.438;2024-01-15T04:32:18;4.90;99.90
26081;DHT22;13991;51.174;4.438;2024-01-15T04:34:44;4.90;99.90
26081;DHT22;13991;51.174;4.438;2024-01-15T04:37:10;4.80;99.90
26081;DHT22;13991;51.174;4.438;2024-01-15T04:39:35;4.90;99.90
26081;DHT22;13991;51.174;4.438;2024-01-15T04:42:01;4.90;99.90
26081;DHT22;13991;51.174;4.438;2024-01-15T04:44:27;4.90;99.90
26081;DHT22;13991;51.174;4.438;2024-01-15T04:46:52;4.80;99.90
26081;DHT22;13991;51.174;4.438;2024-01-15T04:49:18;4.70;99.90
26081;DHT22;13991;51.174;4.438;2024-01-15T04:51:44;4.70;99.90
26081;DHT22;13991;51.174;4.438;2024-01-15T04:54:09;4.70;99.90
26081;DHT22;13991;51.174;4.438;2024-01-15T04:56:35;4.70;99.90
26081;DHT22;13991;51.174;4.438;2024-01-15T04:59:01;4.70;99.90
26081;DHT22;13991;51.174;4.438;2024-01-15T05:01:33;4.70;99.90
26081;DHT22;13991;51.174;4.438;2024-01-15T05:03:59;4.70;99.90
26081;DHT22;13991;51.174;4.438;2024-01-15T05:06:24;4.70;99.90
26081;DHT22;13991;51.174;4.438;2024-01-15T05:08:50;4.70;99.90
26081;DHT22;13991;51.174;4.438;2024-01-15T05:11:16;4.80;99.90
26081;DHT22;13991;51.174;4.438;2024-01-15T05:13:41;4.70;99.90
26081;DHT22;13991;51.174;4.438;2024-01-15T05:16:07;4.70;99.90
26081;DHT22;13991;51.174;4.438;2024-01-15T05:18:33;4.70;99.90
26081;DHT22;13991;51.174;4.438;2024-01-15T05:20:58;4.70;99.90
26081;DHT22;13991;51.174;4.438;2024-01-15T05:23:24;4.70;99.90
26081;DHT22;13991;51.174;4.438;2024-01-15T05:25:50;4.70;99.90
26081;DHT22;13991;51.174;4.438;2024-01-15T05:28:15;4.70;99.90
26081;DHT22;13991;51.174;4.438;2024-01-15T05:30:41;4.70;99.90
26081;DHT22;13991;51.174;4.438;2024-01-15T05:33:07;4.60;99.90
26081;DHT22;13991;51.174;4.438;2024-01-15T05:35:33;4.60;99.90
26081;DHT22;13991;51.174;4.438;2024-01-15T05:37:59;4.60;99.90
26081;DHT22;13991;51.174;4.438;2024-01-15T05:40:24;4.60;99.90
26081;DHT22;13991;51.174;4.438;2024-01-15T05:42:50;4.60;99.90
26081;DHT22;13991;51.174;4.438;2024-01-15T05:45:16;4.50;99.90
26081;DHT22;13991;51.174;4.438;2024-01-15T05:47:41;4.50;99.90
26081;DHT22;13991;51.174;4.438;2024-01-15T05:50:08;4.40;99.90
26081;DHT22;13991;51.174;4.438;2024-01-15T05:52:33;4.40;99.90
26081;DHT22;13991;51.174;4.438;2024-01-15T05:54:59;4.40;99.90
26081;DHT22;13991;51.174;4.438;2024-01-15T05:57:25;4.40;99.90
26081;DHT22;13991;51.174;4.438;2024-01-15T05:59:50;4.30;99.90
26081;DHT22;13991;51.174;4.438;2024-01-15T06:02:16;4.40;99.90
26081;DHT22;13991;51.174;4.438;2024-01-15T06:04:42;4.40;99.90
26081;DHT22;13991;51.174;4.438;2024-01-15T06:07:07;4.30;99.90
26081;DHT22;13991;51.174;4.438;2024-01-15T06:09:33;4.30;99.90
26081;DHT22;13991;51.174;4.438;2024-01-15T06:11:59;4.20;99.90
26081;DHT22;13991;51.174;4.438;2024-01-15T06:14:24;4.20;99.90
26081;DHT22;13991;51.174;4.438;2024-01-15T06:16:50;4.30;99.90
26081;DHT22;13991;51.174;4.438;2024-01-15T06:19:16;4.20;99.90
26081;DHT22;13991;51.174;4.438;2024-01-15T06:21:41;4.20;99.90
26081;DHT22;13991;51.174;4.438;2024-01-15T06:24:07;4.30;99.90
26081;DHT22;13991;51.174;4.438;2024-01-15T06:26:35;4.30;99.90
26081;DHT22;13991;51.174;4.438;2024-01-15T06:29:00;4.40;99.90
26081;DHT22;13991;51.174;4.438;2024-01-15T06:31:26;4.20;99.90
26081;DHT22;13991;51.174;4.438;2024-01-15T06:33:51;4.30;99.90
26081;DHT22;13991;51.174;4.438;2024-01-15T06:36:17;4.40;99.90
26081;DHT22;13991;51.174;4.438;2024-01-15T06:38:43;4.40;99.90
26081;DHT22;13991;51.174;4.438;2024-01-15T06:41:09;4.40;99.90
26081;DHT22;13991;51.174;4.438;2024-01-15T06:43:35;4.30;99.90
26081;DHT22;13991;51.174;4.438;2024-01-15T06:46:01;4.30;99.90
26081;DHT22;13991;51.174;4.438;2024-01-15T06:48:26;4.40;99.90
26081;DHT22;13991;51.174;4.438;2024-01-15T06:50:52;4.30;99.90
26081;DHT22;13991;51.174;4.438;2024-01-15T06:53:18;4.40;99.90
26081;DHT22;13991;51.174;4.438;2024-01-15T06:55:43;4.40;99.90
26081;DHT22;13991;51.174;4.438;2024-01-15T06:58:09;4.50;99.90
26081;DHT22;13991;51.174;4.438;2024-01-15T07:00:35;4.50;99.90
26081;DHT22;13991;51.174;4.438;2024-01-15T07:03:00;4.50;99.90
26081;DHT22;13991;51.174;4.438;2024-01-15T07:05:26;4.50;99.90
26081;DHT22;13991;51.174;4.438;2024-01-15T07:07:52;4.40;99.90
26081;DHT22;13991;51.174;4.438;2024-01-15T07:10:17;4.40;99.90
26081;DHT22;13991;51.174;4.438;2024-01-15T07:12:43;4.60;99.90
26081;DHT22;13991;51.174;4.438;2024-01-15T07:15:09;4.40;99.90
26081;DHT22;13991;51.174;4.438;2024-01-15T07:17:35;4.60;99.90
26081;DHT22;13991;51.174;4.438;2024-01-15T07:20:01;4.60;99.90
26081;DHT22;13991;51.174;4.438;2024-01-15T07:22:27;4.50;99.90
26081;DHT22;13991;51.174;4.438;2024-01-15T07:24:53;4.50;99.90
26081;DHT22;13991;51.174;4.438;2024-01-15T07:27:20;4.60;99.90
26081;DHT22;13991;51.174;4.438;2024-01-15T07:29:46;4.60;99.90
26081;DHT22;13991;51.174;4.438;2024-01-15T07:32:11;4.80;99.90
26081;DHT22;13991;51.174;4.438;2024-01-15T07:34:37;4.70;99.90
26081;DHT22;13991;51.174;4.438;2024-01-15T07:37:03;4.70;99.90
26081;DHT22;13991;51.174;4.438;2024-01-15T07:39:29;4.80;99.90
26081;DHT22;13991;51.174;4.438;2024-01-15T07:41:56;4.80;99.90
26081;DHT22;13991;51.174;4.438;2024-01-15T07:44:21;4.60;99.90
26081;DHT22;13991;51.174;4.438;2024-01-15T07:46:47;4.50;99.90
26081;DHT22;13991;51.174;4.438;2024-01-15T07:49:13;4.50;99.90
26081;DHT22;13991;51.174;4.438;2024-01-15T07:51:39;4.50;99.90
26081;DHT22;13991;51.174;4.438;2024-01-15T07:54:09;4.60;99.90
26081;DHT22;13991;51.174;4.438;2024-01-15T07:56:56;4.60;99.90
26081;DHT22;13991;51.174;4.438;2024-01-15T07:59:25;4.60;99.90
26081;DHT22;13991;51.174;4.438;2024-01-15T08:01:52;4.60;99.90
26081;DHT22;13991;51.174;4.438;2024-01-15T08:04:17;4.60;99.90
26081;DHT22;13991;51.174;4.438;2024-01-15T08:06:44;4.60;99.90
26081;DHT22;13991;51.174;4.438;2024-01-15T08:09:11;4.60;99.90
26081;DHT22;13991;51.174;4.438;2024-01-15T08:11:39;4.60;99.90
26081;DHT22;13991;51.174;4.438;2024-01-15T08:14:06;4.50;99.90
26081;DHT22;13991;51.174;4.438;2024-01-15T08:16:31;4.60;99.90
26081;DHT22;13991;51.174;4.438;2024-01-15T08:18:57;4.60;99.90
26081;DHT22;13991;51.174;4.438;2024-01-15T08:21:22;4.60;99.90
26081;DHT22;13991;51.174;4.438;2024-01-15T08:23:48;4.60;99.90
26081;DHT22;13991;51.174;4.438;2024-01-15T08:26:14;4.60;99.90
26081;DHT22;13991;51.174;4.438;2024-01-15T08:28:39;4.60;99.90
26081;DHT22;13991;51.174;4.438;2024-01-15T08:31:05;4.70;99.90
26081;DHT22;13991;51.174;4.438;2024-01-15T08:33:31;4.70;99.90
26081;DHT22;13991;51.174;4.438;2024-01-15T08:35:56;4.70;99.90
26081;DHT22;13991;51.174;4.438;2024-01-15T08:38:22;4.60;99.90
26081;DHT22;13991;51.174;4.438;2024-01-15T08:40:49;4.60;99.90
26081;DHT22;13991;51.174;4.438;2024-01-15T08:43:15;4.60;99.90
26081;DHT22;13991;51.174;4.438;2024-01-15T08:45:41;4.70;99.90
26081;DHT22;13991;51.174;4.438;2024-01-15T08:48:06;4.60;99.90
26081;DHT22;13991;51.174;4.438;2024-01-15T08:50:33;4.70;99.90
26081;DHT22;13991;51.174;4.438;2024-01-15T08:52:59;4.60;99.90
26081;DHT22;13991;51.174;4.438;2024-01-15T08:55:25;4.60;99.90
26081;DHT22;13991;51.174;4.438;2024-01-15T08:57:50;4.60;99.90
26081;DHT22;13991;51.174;4.438;2024-01-15T09:00:17;4.60;99.90
26081;DHT22;13991;51.174;4.438;2024-01-15T09:02:43;4.60;99.90
26081;DHT22;13991;51.174;4.438;2024-01-15T09:05:09;4.60;99.90
26081;DHT22;13991;51.174;4.438;2024-01-15T09:07:35;4.70;99.90
26081;DHT22;13991;51.174;4.438;2024-01-15T09:10:00;4.50;99.90
26081;DHT22;13991;51.174;4.438;2024-01-15T09:12:27;4.50;99.90
26081;DHT22;13991;51.174;4.438;2024-01-15T09:14:53;4.50;99.90
26081;DHT22;13991;51.174;4.438;2024-01-15T09:17:20;4.40;99.90
26081;DHT22;13991;51.174;4.438;2024-01-15T09:19:45;4.60;99.90
26081;DHT22;13991;51.174;4.438;2024-01-15T09:22:12;4.70;99.90
26081;DHT22;13991;51.174;4.438;2024-01-15T09:24:40;4.60;99.90
26081;DHT22;13991;51.174;4.438;2024-01-15T09:27:07;4.60;99.90
26081;DHT22;13991;51.174;4.438;2024-01-15T09:29:33;4.70;99.90
26081;DHT22;13991;51.174;4.438;2024-01-15T09:31:58;4.70;99.90
26081;DHT22;13991;51.174;4.438;2024-01-15T09:34:27;4.70;99.90
26081;DHT22;13991;51.174;4.438;2024-01-15T09:36:52;4.80;99.90
26081;DHT22;13991;51.174;4.438;2024-01-15T09:39:18;4.80;99.90
26081;DHT22;13991;51.174;4.438;2024-01-15T09:41:44;4.90;99.90
26081;DHT22;13991;51.174;4.438;2024-01-15T09:44:10;4.90;99.90
26081;DHT22;13991;51.174;4.438;2024-01-15T09:46:38;4.90;99.90
26081;DHT22;13991;51.174;4.438;2024-01-15T09:49:04;4.80;99.90
26081;DHT22;13991;51.174;4.438;2024-01-15T09:51:32;4.90;99.90
26081;DHT22;13991;51.174;4.438;2024-01-15T09:53:58;5.10;99.90
26081;DHT22;13991;51.174;4.438;2024-01-15T09:56:24;5.00;99.90
26081;DHT22;13991;51.174;4.438;2024-01-15T09:58:50;5.00;99.90
26081;DHT22;13991;51.174;4.438;2024-01-15T10:01:20;5.10;99.90
26081;DHT22;13991;51.174;4.438;2024-01-15T10:03:46;5.10;99.90
26081;DHT22;13991;51.174;4.438;2024-01-15T10:06:15;5.10;99.90
26081;DHT22;13991;51.174;4.438;2024-01-15T10:08:49;5.20;99.90
26081;DHT22;13991;51.174;4.438;2024-01-15T10:11:15;5.10;99.90
26081;DHT22;13991;51.174;4.438;2024-01-15T10:13:46;5.20;99.90
26081;DHT22;13991;51.174;4.438;2024-01-15T10:16:12;5.30;99.90
26081;DHT22;13991;51.174;4.438;2024-01-15T10:18:38;5.30;99.90
26081;DHT22;13991;51.174;4.438;2024-01-15T10:21:06;5.40;99.90
26081;DHT22;13991;51.174;4.438;2024-01-15T10:23:33;5.40;99.90
26081;DHT22;13991;51.174;4.438;2024-01-15T10:26:00;5.40;99.90
26081;DHT22;13991;51.174;4.438;2024-01-15T10:28:29;5.60;99.90
26081;DHT22;13991;51.174;4.438;2024-01-15T10:30:57;5.70;99.90
26081;DHT22;13991;51.174;4.438;2024-01-15T10:33:24;5.60;99.90
26081;DHT22;13991;51.174;4.438;2024-01-15T10:35:53;5.60;99.90
26081;DHT22;13991;51.174;4.438;2024-01-15T10:38:21;5.70;99.90
26081;DHT22;13991;51.174;4.438;2024-01-15T10:40:51;5.60;99.90
26081;DHT22;13991;51.174;4.438;2024-01-15T10:43:17;5.70;99.90
26081;DHT22;13991;51.174;4.438;2024-01-15T10:45:50;5.60;99.90
26081;DHT22;13991;51.174;4.438;2024-01-15T10:48:18;5.50;99.90
26081;DHT22;13991;51.174;4.438;2024-01-15T10:50:46;5.40;99.90
26081;DHT22;13991;51.174;4.438;2024-01-15T10:53:16;5.20;99.90
26081;DHT22;13991;51.174;4.438;2024-01-15T10:55:42;5.20;99.90
26081;DHT22;13991;51.174;4.438;2024-01-15T10:58:09;5.10;99.90
26081;DHT22;13991;51.174;4.438;2024-01-15T11:00:38;5.00;99.90
26081;DHT22;13991;51.174;4.438;2024-01-15T11:06:19;5.00;99.90
26081;DHT22;13991;51.174;4.438;2024-01-15T11:08:52;5.10;99.90
26081;DHT22;13991;51.174;4.438;2024-01-15T11:11:18;5.10;99.90
26081;DHT22;13991;51.174;4.438;2024-01-15T11:13:49;5.30;99.90
26081;DHT22;13991;51.174;4.438;2024-01-15T11:16:17;5.30;99.90
26081;DHT22;13991;51.174;4.438;2024-01-15T11:21:22;5.40;99.90
26081;DHT22;13991;51.174;4.438;2024-01-15T11:26:35;5.70;99.90
26081;DHT22;13991;51.174;4.438;2024-01-15T11:34:21;5.90;99.90
26081;DHT22;13991;51.174;4.438;2024-01-15T11:37:06;5.50;99.90
26081;DHT22;13991;51.174;4.438;2024-01-15T11:42:01;5.00;99.90
26081;DHT22;13991;51.174;4.438;2024-01-15T11:44:28;4.90;99.90
26081;DHT22;13991;51.174;4.438;2024-01-15T11:46:59;4.70;99.90
26081;DHT22;13991;51.174;4.438;2024-01-15T11:52:20;4.20;99.90
26081;DHT22;13991;51.174;4.438;2024-01-15T11:55:00;3.90;99.90
26081;DHT22;13991;51.174;4.438;2024-01-15T11:57:47;3.70;99.90
26081;DHT22;13991;51.174;4.438;2024-01-15T12:00:15;3.70;99.90
26081;DHT22;13991;51.174;4.438;2024-01-15T12:02:45;3.80;99.90
26081;DHT22;13991;51.174;4.438;2024-01-15T12:05:13;4.00;99.90
26081;DHT22;13991;51.174;4.438;2024-01-15T12:07:43;4.00;99.90
26081;DHT22;13991;51.174;4.438;2024-01-15T12:10:19;4.10;99.90
26081;DHT22;13991;51.174;4.438;2024-01-15T12:12:58;4.10;99.90
26081;DHT22;13991;51.174;4.438;2024-01-15T12:15:25;4.30;99.90
26081;DHT22;13991;51.174;4.438;2024-01-15T12:17:52;4.40;99.90
26081;DHT22;13991;51.174;4.438;2024-01-15T12:20:18;4.40;99.90
26081;DHT22;13991;51.174;4.438;2024-01-15T12:22:44;4.40;99.90
26081;DHT22;13991;51.174;4.438;2024-01-15T12:25:10;4.20;99.90
26081;DHT22;13991;51.174;4.438;2024-01-15T12:27:36;4.00;99.90
26081;DHT22;13991;51.174;4.438;2024-01-15T12:30:02;3.90;99.90
26081;DHT22;13991;51.174;4.438;2024-01-15T12:32:32;3.70;99.90
26081;DHT22;13991;51.174;4.438;2024-01-15T12:34:58;3.60;99.90
26081;DHT22;13991;51.174;4.438;2024-01-15T12:37:24;3.60;99.90
26081;DHT22;13991;51.174;4.438;2024-01-15T12:39:52;3.50;99.90
26081;DHT22;13991;51.174;4.438;2024-01-15T12:42:21;3.60;99.90
26081;DHT22;13991;51.174;4.438;2024-01-15T12:44:47;3.60;99.90
26081;DHT22;13991;51.174;4.438;2024-01-15T12:47:13;3.40;99.90
26081;DHT22;13991;51.174;4.438;2024-01-15T12:49:40;3.40;99.90
26081;DHT22;13991;51.174;4.438;2024-01-15T12:52:09;3.70;99.90
26081;DHT22;13991;51.174;4.438;2024-01-15T12:54:35;3.50;99.90
26081;DHT22;13991;51.174;4.438;2024-01-15T12:57:00;3.40;99.90
26081;DHT22;13991;51.174;4.438;2024-01-15T12:59:26;3.40;99.90
26081;DHT22;13991;51.174;4.438;2024-01-15T13:01:52;3.40;99.90
26081;DHT22;13991;51.174;4.438;2024-01-15T13:04:22;3.60;99.90
26081;DHT22;13991;51.174;4.438;2024-01-15T13:06:49;3.40;99.90
26081;DHT22;13991;51.174;4.438;2024-01-15T13:09:15;3.50;99.90
26081;DHT22;13991;51.174;4.438;2024-01-15T13:11:40;3.50;99.90
26081;DHT22;13991;51.174;4.438;2024-01-15T13:14:06;3.40;99.90
26081;DHT22;13991;51.174;4.438;2024-01-15T13:16:32;3.40;99.90
26081;DHT22;13991;51.174;4.438;2024-01-15T13:18:57;3.50;99.90
26081;DHT22;13991;51.174;4.438;2024-01-15T13:21:24;3.40;99.90
26081;DHT22;13991;51.174;4.438;2024-01-15T13:23:50;3.50;99.90
26081;DHT22;13991;51.174;4.438;2024-01-15T13:26:15;3.40;99.90
26081;DHT22;13991;51.174;4.438;2024-01-15T13:28:43;3.40;99.90
26081;DHT22;13991;51.174;4.438;2024-01-15T13:31:09;3.60;99.90
26081;DHT22;13991;51.174;4.438;2024-01-15T13:33:35;3.50;99.90
26081;DHT22;13991;51.174;4.438;2024-01-15T13:36:00;3.50;99.90
26081;DHT22;13991;51.174;4.438;2024-01-15T13:38:26;3.50;99.90
26081;DHT22;13991;51.174;4.438;2024-01-15T13:40:53;3.50;99.90
26081;DHT22;13991;51.174;4.438;2024-01-15T13:43:20;3.60;99.90
26081;DHT22;13991;51.174;4.438;2024-01-15T13:45:46;3.60;99.90
26081;DHT22;13991;51.174;4.438;2024-01-15T13:48:12;3.70;99.90
26081;DHT22;13991;51.174;4.438;2024-01-15T13:50:38;3.70;99.90
26081;DHT22;13991;51.174;4.438;2024-01-15T13:53:03;3.90;99.90
26081;DHT22;13991;51.174;4.438;2024-01-15T13:55:30;3.80;99.90
26081;DHT22;13991;51.174;4.438;2024-01-15T13:57:55;3.90;99.90
26081;DHT22;13991;51.174;4.438;2024-01-15T14:00:21;3.60;99.90
26081;DHT22;13991;51.174;4.438;2024-01-15T14:02:48;3.80;99.90
26081;DHT22;13991;51.174;4.438;2024-01-15T14:05:14;3.90;99.90
26081;DHT22;13991;51.174;4.438;2024-01-15T14:07:40;3.90;99.90
26081;DHT22;13991;51.174;4.438;2024-01-15T14:10:07;4.10;99.90
26081;DHT22;13991;51.174;4.438;2024-01-15T14:12:33;4.00;99.90
26081;DHT22;13991;51.174;4.438;2024-01-15T14:15:00;4.10;99.90
26081;DHT22;13991;51.174;4.438;2024-01-15T14:17:26;4.30;99.90
26081;DHT22;13991;51.174;4.438;2024-01-15T14:19:51;4.30;99.90
26081;DHT22;13991;51.174;4.438;2024-01-15T14:22:17;4.30;99.90
26081;DHT22;13991;51.174;4.438;2024-01-15T14:24:43;4.40;99.90
26081;DHT22;13991;51.174;4.438;2024-01-15T14:27:08;4.40;99.90
26081;DHT22;13991;51.174;4.438;2024-01-15T14:29:35;4.50;99.90
26081;DHT22;13991;51.174;4.438;2024-01-15T14:32:01;4.50;99.90
26081;DHT22;13991;51.174;4.438;2024-01-15T14:34:27;4.70;99.90
26081;DHT22;13991;51.174;4.438;2024-01-15T14:36:53;4.90;99.90
26081;DHT22;13991;51.174;4.438;2024-01-15T14:39:20;5.00;99.90
26081;DHT22;13991;51.174;4.438;2024-01-15T14:41:46;5.20;99.90
26081;DHT22;13991;51.174;4.438;2024-01-15T14:44:12;5.10;99.90
26081;DHT22;13991;51.174;4.438;2024-01-15T14:46:38;5.10;99.90
26081;DHT22;13991;51.174;4.438;2024-01-15T14:49:04;5.20;99.90
26081;DHT22;13991;51.174;4.438;2024-01-15T14:51:30;5.20;99.90
26081;DHT22;13991;51.174;4.438;2024-01-15T14:53:56;5.20;99.90
26081;DHT22;13991;51.174;4.438;2024-01-15T14:56:22;5.20;99.90
26081;DHT22;13991;51.174;4.438;2024-01-15T14:58:47;5.30;99.90
26081;DHT22;13991;51.174;4.438;2024-01-15T15:01:13;5.40;99.90
26081;DHT22;13991;51.174;4.438;2024-01-15T15:03:39;5.40;99.90
26081;DHT22;13991;51.174;4.438;2024-01-15T15:06:05;5.50;99.90
26081;DHT22;13991;51.174;4.438;2024-01-15T15:08:33;5.60;99.90
26081;DHT22;13991;51.174;4.438;2024-01-15T15:10:59;5.60;99.90
26081;DHT22;13991;51.174;4.438;2024-01-15T15:13:25;5.70;99.90
26081;DHT22;13991;51.174;4.438;2024-01-15T15:15:52;5.70;99.90
26081;DHT22;13991;51.174;4.438;2024-01-15T15:18:19;5.60;99.90
26081;DHT22;13991;51.174;4.438;2024-01-15T15:20:45;5.70;99.90
26081;DHT22;13991;51.174;4.438;2024-01-15T15:23:11;5.60;99.90
26081;DHT22;13991;51.174;4.438;2024-01-15T15:25:37;5.50;99.90
26081;DHT22;13991;51.174;4.438;2024-01-15T15:28:03;5.30;99.90
26081;DHT22;13991;51.174;4.438;2024-01-15T15:30:31;5.00;99.90
26081;DHT22;13991;51.174;4.438;2024-01-15T15:32:56;4.90;99.90
26081;DHT22;13991;51.174;4.438;2024-01-15T15:35:22;4.80;99.90
26081;DHT22;13991;51.174;4.438;2024-01-15T15:37:48;4.80;99.90
26081;DHT22;13991;51.174;4.438;2024-01-15T15:40:13;4.80;99.90
26081;DHT22;13991;51.174;4.438;2024-01-15T15:42:39;4.90;99.90
26081;DHT22;13991;51.174;4.438;2024-01-15T15:45:05;4.90;99.90
26081;DHT22;13991;51.174;4.438;2024-01-15T15:47:31;4.90;99.90
26081;DHT22;13991;51.174;4.438;2024-01-15T15:49:58;4.90;99.90
26081;DHT22;13991;51.174;4.438;2024-01-15T15:52:24;4.90;99.90
26081;DHT22;13991;51.174;4.438;2024-01-15T15:54:49;4.90;99.90
26081;DHT22;13991;51.174;4.438;2024-01-15T15:57:15;4.50;99.90
26081;DHT22;13991;51.174;4.438;2024-01-15T15:59:41;4.10;99.90